Aviation Digital Data Service (ADDS)

Output produced by METARs form (1536 UTC 27 May 2017)
found at http://aviationweather.gov/adds/metars/
 
KORH 271333Z 2714/2812 31008KT P6SM BKN022 
     FM271600 33005KT P6SM SCT025 BKN035 
     TEMPO 2716/2718 BKN025 
     FM272000 VRB03KT P6SM BKN040 
     FM280500 12005KT P6SM -DZ BKN010 
     FM281000 VRB03KT P6SM BKN003